createdAt,value
2023-02-27T00:01:46.717Z,9.70
2023-02-27T00:04:13.245Z,8.38
2023-02-27T00:06:39.601Z,8.15
2023-02-27T00:09:06.077Z,8.90
2023-02-27T00:11:32.447Z,9.70
2023-02-27T00:13:58.785Z,9.43
2023-02-27T00:16:25.257Z,10.93
2023-02-27T00:18:51.652Z,9.40
2023-02-27T00:21:18.245Z,9.63
2023-02-27T00:23:44.628Z,8.87
2023-02-27T00:26:10.981Z,11.20
2023-02-27T00:28:37.337Z,8.32
2023-02-27T00:31:04.757Z,12.43
2023-02-27T00:33:31.338Z,8.75
2023-02-27T00:35:59.838Z,9.37
2023-02-27T00:38:26.821Z,10.45
2023-02-27T00:40:54.008Z,8.20
2023-02-27T00:43:20.569Z,11.55
2023-02-27T00:45:48.049Z,7.85
2023-02-27T00:48:15.110Z,8.50
2023-02-27T00:50:41.976Z,9.95
2023-02-27T00:53:08.521Z,6.82
2023-02-27T00:55:34.922Z,11.40
2023-02-27T00:58:01.323Z,8.00
2023-02-27T01:00:28.188Z,9.83
2023-02-27T01:02:54.765Z,9.25
2023-02-27T01:05:21.509Z,9.25
2023-02-27T01:07:48.054Z,7.40
2023-02-27T01:10:14.719Z,7.85
2023-02-27T01:12:41.645Z,9.03
2023-02-27T01:15:09.842Z,7.97
2023-02-27T01:17:36.431Z,10.55
2023-02-27T01:20:03.472Z,9.52
2023-02-27T01:22:29.846Z,8.32
2023-02-27T01:24:56.220Z,8.37
2023-02-27T01:27:22.580Z,8.93
2023-02-27T01:29:48.995Z,8.70
2023-02-27T01:32:15.449Z,8.73
2023-02-27T01:34:41.910Z,10.90
2023-02-27T01:37:08.449Z,9.17
2023-02-27T01:39:34.848Z,8.32
2023-02-27T01:42:01.275Z,7.82
2023-02-27T01:44:30.007Z,7.72
2023-02-27T01:46:57.257Z,10.50
2023-02-27T01:49:34.057Z,8.63
2023-02-27T01:52:10.875Z,9.93
2023-02-27T01:54:40.494Z,9.45
2023-02-27T01:57:07.839Z,8.82
2023-02-27T01:59:36.906Z,10.77
2023-02-27T02:02:09.315Z,9.23
2023-02-27T02:04:39.169Z,9.30
2023-02-27T02:07:12.997Z,8.95
2023-02-27T02:09:48.343Z,10.95
2023-02-27T02:12:16.957Z,9.20
2023-02-27T02:14:44.044Z,10.90
2023-02-27T02:17:13.807Z,10.30
2023-02-27T02:19:54.537Z,8.85
2023-02-27T02:22:51.948Z,10.48
2023-02-27T02:25:45.869Z,9.95
2023-02-27T02:28:47.745Z,11.17
2023-02-27T02:31:57.438Z,8.68
2023-02-27T02:34:45.480Z,9.13
2023-02-27T02:37:33.037Z,8.88
2023-02-27T02:40:27.807Z,7.43
2023-02-27T02:43:08.483Z,11.60
2023-02-27T02:45:52.861Z,8.10
2023-02-27T02:48:39.405Z,8.18
2023-02-27T02:51:17.423Z,10.15
2023-02-27T02:53:59.270Z,9.05
2023-02-27T02:56:44.090Z,9.30
2023-02-27T02:59:30.659Z,10.48
2023-02-27T03:02:03.413Z,10.85
2023-02-27T03:04:42.831Z,10.25
2023-02-27T03:07:16.878Z,8.70
2023-02-27T03:09:49.128Z,10.80
2023-02-27T03:12:21.599Z,9.48
2023-02-27T03:14:58.829Z,8.50
2023-02-27T03:17:38.437Z,8.27
2023-02-27T03:20:09.089Z,10.38
2023-02-27T03:22:40.008Z,9.70
2023-02-27T03:25:09.089Z,9.43
2023-02-27T03:27:40.724Z,9.57
2023-02-27T03:30:17.951Z,7.75
2023-02-27T03:32:56.832Z,7.57
2023-02-27T03:35:32.064Z,9.87
2023-02-27T03:38:28.872Z,11.82
2023-02-27T03:41:15.140Z,7.50
2023-02-27T03:44:00.717Z,9.18
2023-02-27T03:46:28.444Z,8.23
2023-02-27T03:48:55.084Z,7.30
2023-02-27T03:51:23.893Z,8.40
2023-02-27T03:54:14.264Z,8.35
2023-02-27T03:57:02.274Z,9.10
2023-02-27T03:59:30.348Z,8.48
2023-02-27T04:01:57.700Z,9.20
2023-02-27T04:04:25.300Z,9.57
2023-02-27T04:07:25.284Z,9.15
2023-02-27T04:10:16.068Z,7.60
2023-02-27T04:13:19.864Z,8.38
2023-02-27T04:16:03.443Z,9.10
2023-02-27T04:18:59.001Z,10.75
2023-02-27T04:21:37.652Z,9.40
2023-02-27T04:24:35.284Z,8.45
2023-02-27T04:27:16.208Z,8.65
2023-02-27T04:30:02.592Z,7.93
2023-02-27T04:32:38.290Z,10.32
2023-02-27T04:35:39.529Z,9.13
2023-02-27T04:38:25.500Z,10.43
2023-02-27T04:40:57.753Z,9.50
2023-02-27T04:43:26.469Z,8.50
2023-02-27T04:45:56.716Z,9.13
2023-02-27T04:48:25.973Z,10.48
2023-02-27T04:50:58.264Z,10.25
2023-02-27T04:53:29.309Z,8.73
2023-02-27T04:56:06.378Z,9.27
2023-02-27T04:58:40.579Z,8.85
2023-02-27T05:01:13.571Z,10.05
2023-02-27T05:03:44.957Z,12.57
2023-02-27T05:06:14.994Z,10.32
2023-02-27T05:08:49.349Z,10.70
2023-02-27T05:11:28.510Z,12.98
2023-02-27T05:14:04.271Z,9.73
2023-02-27T05:16:38.667Z,10.95
2023-02-27T05:19:06.312Z,9.32
2023-02-27T05:21:47.505Z,9.60
2023-02-27T05:24:25.388Z,9.85
2023-02-27T05:27:16.525Z,10.20
2023-02-27T05:29:50.087Z,11.13
2023-02-27T05:32:37.379Z,12.05
2023-02-27T05:35:36.679Z,8.37
2023-02-27T05:38:09.946Z,10.40
2023-02-27T05:40:44.216Z,10.77
2023-02-27T05:43:28.501Z,8.80
2023-02-27T05:46:04.977Z,8.27
2023-02-27T05:48:36.758Z,8.93
2023-02-27T05:51:06.826Z,13.98
2023-02-27T05:53:39.241Z,8.40
2023-02-27T05:56:08.083Z,8.70
2023-02-27T05:58:34.381Z,13.10
2023-02-27T06:01:03.750Z,9.53
2023-02-27T06:03:33.545Z,11.10
2023-02-27T06:06:03.175Z,9.77
2023-02-27T06:08:29.680Z,9.18
2023-02-27T06:10:56.061Z,10.77
2023-02-27T06:13:23.979Z,11.80
2023-02-27T06:15:50.631Z,11.85
2023-02-27T06:18:17.741Z,11.50
2023-02-27T06:20:44.856Z,9.00
2023-02-27T06:23:12.055Z,7.72
2023-02-27T06:25:38.987Z,9.17
2023-02-27T06:28:05.922Z,10.05
2023-02-27T06:30:32.350Z,10.25
2023-02-27T06:32:59.826Z,7.72
2023-02-27T06:35:26.548Z,11.63
2023-02-27T06:37:53.020Z,8.00
2023-02-27T06:40:19.428Z,12.02
2023-02-27T06:42:46.265Z,11.98
2023-02-27T06:45:15.298Z,13.18
2023-02-27T06:47:42.961Z,17.02
2023-02-27T06:50:11.292Z,11.97
2023-02-27T06:52:38.747Z,12.63
2023-02-27T06:55:07.210Z,10.63
2023-02-27T06:57:33.798Z,12.82
2023-02-27T07:00:00.190Z,12.15
2023-02-27T07:02:26.723Z,14.77
2023-02-27T07:04:53.245Z,10.55
2023-02-27T07:07:35.189Z,10.95
2023-02-27T07:10:05.056Z,13.88
2023-02-27T07:12:31.439Z,13.07
2023-02-27T07:14:57.864Z,10.57
2023-02-27T07:17:24.212Z,13.98
2023-02-27T07:19:50.606Z,9.60
2023-02-27T07:22:16.973Z,11.70
2023-02-27T07:24:43.398Z,10.07
2023-02-27T07:27:09.768Z,14.23
2023-02-27T07:29:36.128Z,13.13
2023-02-27T07:32:02.901Z,9.60
2023-02-27T07:34:29.299Z,13.15
2023-02-27T07:36:55.672Z,11.75
2023-02-27T07:39:22.031Z,8.70
2023-02-27T07:41:48.386Z,13.20
2023-02-27T07:44:14.844Z,12.30
2023-02-27T07:46:41.228Z,10.88
2023-02-27T07:49:07.658Z,12.88
2023-02-27T07:51:34.048Z,10.87
2023-02-27T07:54:00.434Z,15.25
2023-02-27T07:56:27.328Z,11.55
2023-02-27T07:58:53.977Z,11.02
2023-02-27T08:01:20.387Z,10.75
2023-02-27T08:03:46.766Z,11.37
2023-02-27T08:06:13.231Z,12.90
2023-02-27T08:08:39.693Z,13.88
2023-02-27T08:11:06.211Z,11.00
2023-02-27T08:13:59.161Z,9.63
2023-02-27T08:16:18.939Z,13.17
2023-02-27T08:18:45.277Z,12.27
2023-02-27T08:21:11.627Z,9.13
2023-02-27T08:23:38.023Z,10.02
2023-02-27T08:26:04.582Z,6.93
2023-02-27T08:28:30.956Z,12.37
2023-02-27T08:30:57.456Z,11.63
2023-02-27T08:33:25.170Z,12.13
2023-02-27T08:35:51.911Z,8.77
2023-02-27T08:38:18.302Z,12.05
2023-02-27T08:40:44.696Z,10.07
2023-02-27T08:43:11.096Z,8.75
2023-02-27T08:45:37.680Z,8.98
2023-02-27T08:48:04.242Z,8.43
2023-02-27T08:50:30.656Z,14.55
2023-02-27T08:52:57.126Z,7.47
2023-02-27T08:55:23.587Z,9.15
2023-02-27T08:57:49.956Z,7.85
2023-02-27T09:00:16.828Z,9.38
2023-02-27T09:02:43.314Z,8.95
2023-02-27T09:05:09.763Z,9.87
2023-02-27T09:07:36.177Z,9.93
2023-02-27T09:10:02.770Z,7.13
2023-02-27T09:12:29.194Z,7.00
2023-02-27T09:14:55.576Z,7.25
2023-02-27T09:17:21.972Z,8.90
2023-02-27T09:19:49.247Z,11.73
2023-02-27T09:22:15.633Z,6.55
2023-02-27T09:24:42.004Z,7.18
2023-02-27T09:27:08.402Z,6.30
2023-02-27T09:29:34.802Z,8.27
2023-02-27T09:32:01.377Z,10.18
2023-02-27T09:34:28.202Z,6.03
2023-02-27T09:36:54.596Z,9.32
2023-02-27T09:39:21.405Z,7.55
2023-02-27T09:42:15.525Z,10.83
2023-02-27T09:44:47.686Z,7.32
2023-02-27T09:47:20.927Z,9.27
2023-02-27T09:49:57.275Z,9.07
2023-02-27T09:52:23.761Z,7.45
2023-02-27T09:54:50.458Z,11.77
2023-02-27T09:57:31.742Z,7.93
2023-02-27T10:00:04.957Z,6.70
2023-02-27T10:02:56.061Z,7.90
2023-02-27T10:05:31.091Z,5.80
2023-02-27T10:08:35.695Z,9.07
2023-02-27T10:11:07.326Z,8.88
2023-02-27T10:13:55.676Z,6.40
2023-02-27T10:16:23.080Z,4.60
2023-02-27T10:18:57.984Z,6.47
2023-02-27T10:21:51.106Z,5.83
2023-02-27T10:24:44.721Z,7.40
2023-02-27T10:27:17.614Z,4.57
2023-02-27T10:29:44.061Z,7.20
2023-02-27T10:32:17.065Z,5.80
2023-02-27T10:34:46.916Z,4.50
2023-02-27T10:37:16.296Z,5.18
2023-02-27T10:39:53.237Z,5.72
2023-02-27T10:42:20.652Z,5.85
2023-02-27T10:44:53.388Z,4.43
2023-02-27T10:47:24.514Z,4.93
2023-02-27T10:49:53.082Z,4.93
2023-02-27T10:52:19.522Z,4.90
2023-02-27T10:54:46.584Z,4.32
2023-02-27T10:57:21.054Z,4.43
2023-02-27T10:59:53.372Z,3.93
2023-02-27T11:02:24.969Z,3.45
2023-02-27T11:04:56.978Z,3.97
2023-02-27T11:07:39.707Z,2.75
2023-02-27T11:10:15.082Z,2.53
2023-02-27T11:12:56.399Z,4.13
2023-02-27T11:15:26.701Z,4.38
2023-02-27T11:17:54.728Z,4.20
2023-02-27T11:20:30.313Z,4.40
2023-02-27T11:23:16.377Z,4.57
2023-02-27T11:25:43.307Z,3.53
2023-02-27T11:28:26.539Z,4.20
2023-02-27T11:31:03.400Z,5.18
2023-02-27T11:33:35.873Z,5.10
2023-02-27T11:36:03.150Z,3.63
2023-02-27T11:38:31.571Z,3.77
2023-02-27T11:41:01.546Z,4.15
2023-02-27T11:43:46.866Z,2.70
2023-02-27T11:46:47.894Z,4.45
2023-02-27T11:49:18.815Z,4.22
2023-02-27T11:52:03.343Z,3.90
2023-02-27T11:54:57.175Z,5.57
2023-02-27T11:57:32.404Z,3.85
2023-02-27T12:00:06.611Z,4.55
2023-02-27T12:03:00.571Z,3.28
2023-02-27T12:05:41.039Z,5.47
2023-02-27T12:08:18.069Z,3.80
2023-02-27T12:11:13.214Z,3.05
2023-02-27T12:13:45.345Z,2.50
2023-02-27T12:16:22.536Z,4.43
2023-02-27T12:18:55.385Z,3.40
2023-02-27T12:21:26.477Z,4.07
2023-02-27T12:24:10.362Z,5.28
2023-02-27T12:26:43.688Z,3.13
2023-02-27T12:29:34.708Z,3.38
2023-02-27T12:32:23.036Z,4.87
2023-02-27T12:34:58.206Z,3.72
2023-02-27T12:37:27.593Z,4.38
2023-02-27T12:39:58.031Z,3.05
2023-02-27T12:42:42.862Z,4.38
2023-02-27T12:45:37.125Z,3.23
2023-02-27T12:48:29.229Z,7.68
2023-02-27T12:51:27.538Z,4.03
2023-02-27T12:54:18.611Z,2.60
2023-02-27T12:57:22.803Z,4.43
2023-02-27T12:59:56.784Z,4.00
2023-02-27T13:02:26.611Z,2.50
2023-02-27T13:05:06.854Z,2.38
2023-02-27T13:08:04.592Z,3.20
2023-02-27T13:10:41.893Z,2.97
2023-02-27T13:13:26.632Z,2.87
2023-02-27T13:16:06.026Z,2.88
2023-02-27T13:18:42.169Z,2.08
2023-02-27T13:21:18.184Z,2.00
2023-02-27T13:24:01.967Z,4.00
2023-02-27T13:26:41.953Z,5.30
2023-02-27T13:29:14.303Z,5.72
2023-02-27T13:31:52.704Z,4.95
2023-02-27T13:34:30.223Z,5.15
2023-02-27T13:37:05.204Z,4.10
2023-02-27T13:39:37.882Z,4.40
2023-02-27T13:42:05.232Z,2.72
2023-02-27T13:44:40.861Z,2.17
2023-02-27T13:47:40.451Z,2.97
2023-02-27T13:50:21.114Z,3.35
2023-02-27T13:52:48.081Z,2.30
2023-02-27T13:55:31.057Z,4.07
2023-02-27T13:57:59.935Z,3.35
2023-02-27T14:00:29.154Z,3.38
2023-02-27T14:03:08.776Z,1.55
2023-02-27T14:05:46.876Z,3.17
2023-02-27T14:08:22.118Z,4.57
2023-02-27T14:11:12.639Z,3.70
2023-02-27T14:13:54.511Z,2.90
2023-02-27T14:16:41.822Z,9.43
2023-02-27T14:19:17.709Z,3.13
2023-02-27T14:22:00.353Z,2.88
2023-02-27T14:24:44.815Z,3.03
2023-02-27T14:27:26.727Z,2.42
2023-02-27T14:29:57.320Z,2.20
2023-02-27T14:32:26.431Z,3.17
2023-02-27T14:34:54.829Z,3.78
2023-02-27T14:37:25.120Z,3.53
2023-02-27T14:39:54.392Z,4.07
2023-02-27T14:42:39.593Z,2.42
2023-02-27T14:45:13.912Z,2.90
2023-02-27T14:47:40.808Z,2.97
2023-02-27T14:50:23.052Z,4.25
2023-02-27T14:52:49.489Z,3.67
2023-02-27T14:55:33.409Z,4.90
2023-02-27T14:58:14.585Z,2.97
2023-02-27T15:00:50.433Z,3.47
2023-02-27T15:03:22.645Z,2.88
2023-02-27T15:05:51.382Z,3.45
2023-02-27T15:08:25.225Z,4.03
2023-02-27T15:10:54.084Z,2.73
2023-02-27T15:13:25.642Z,4.43
2023-02-27T15:16:16.670Z,4.35
2023-02-27T15:18:48.478Z,3.03
2023-02-27T15:21:15.589Z,3.50
2023-02-27T15:23:41.997Z,2.20
2023-02-27T15:26:14.118Z,3.33
2023-02-27T15:28:40.863Z,3.45
2023-02-27T15:31:12.442Z,5.50
2023-02-27T15:33:41.000Z,4.25
2023-02-27T15:36:07.801Z,4.10
2023-02-27T15:38:36.306Z,2.95
2023-02-27T15:41:03.787Z,4.53
2023-02-27T15:43:31.150Z,4.57
2023-02-27T15:45:58.333Z,4.28
2023-02-27T15:48:25.655Z,5.07
2023-02-27T15:50:59.408Z,3.25
2023-02-27T15:53:27.979Z,3.30
2023-02-27T15:55:58.500Z,3.33
2023-02-27T15:58:27.548Z,4.25
2023-02-27T16:01:19.090Z,3.60
2023-02-27T16:03:48.799Z,4.55
2023-02-27T16:06:23.359Z,3.80
2023-02-27T16:08:58.220Z,4.05
2023-02-27T16:11:27.780Z,3.65
2023-02-27T16:13:55.114Z,3.40
2023-02-27T16:16:21.536Z,3.65
2023-02-27T16:18:51.032Z,3.83
2023-02-27T16:21:18.637Z,3.60
2023-02-27T16:23:46.027Z,4.60
2023-02-27T16:26:23.501Z,4.17
2023-02-27T16:29:06.340Z,2.60
2023-02-27T16:31:34.772Z,5.15
2023-02-27T16:34:21.427Z,4.78
2023-02-27T16:36:57.918Z,3.80
2023-02-27T16:39:24.914Z,3.73
2023-02-27T16:41:55.899Z,2.83
2023-02-27T16:44:24.306Z,5.50
2023-02-27T16:46:52.977Z,6.50
2023-02-27T16:49:22.382Z,4.65
2023-02-27T16:51:49.333Z,3.57
2023-02-27T16:54:16.603Z,5.22
2023-02-27T16:56:46.308Z,3.35
2023-02-27T16:59:37.429Z,2.60
2023-02-27T17:02:06.992Z,3.88
2023-02-27T17:04:33.453Z,3.83
2023-02-27T17:07:01.263Z,4.10
2023-02-27T17:09:28.316Z,4.15
2023-02-27T17:11:56.119Z,4.53
2023-02-27T17:14:23.897Z,4.75
2023-02-27T17:16:50.324Z,4.70
2023-02-27T17:19:16.853Z,4.50
2023-02-27T17:21:43.289Z,4.32
2023-02-27T17:24:09.778Z,4.65
2023-02-27T17:26:36.538Z,7.05
2023-02-27T17:29:03.653Z,4.83
2023-02-27T17:31:30.054Z,7.13
2023-02-27T17:33:56.911Z,3.15
2023-02-27T17:36:23.806Z,4.57
2023-02-27T17:38:57.548Z,5.20
2023-02-27T17:41:24.518Z,3.80
2023-02-27T17:43:53.759Z,4.97
2023-02-27T17:46:20.240Z,3.78
2023-02-27T17:48:46.969Z,4.55
2023-02-27T17:51:15.167Z,5.57
2023-02-27T17:53:42.362Z,5.67
2023-02-27T17:56:09.987Z,5.10
2023-02-27T17:58:36.645Z,4.20
2023-02-27T18:01:05.802Z,4.65
2023-02-27T18:03:32.603Z,3.75
2023-02-27T18:05:59.039Z,3.87
2023-02-27T18:08:25.503Z,4.32
2023-02-27T18:10:52.693Z,4.43
2023-02-27T18:13:19.586Z,5.35
2023-02-27T18:15:46.219Z,4.78
2023-02-27T18:18:12.935Z,6.57
2023-02-27T18:20:40.424Z,4.75
2023-02-27T18:23:08.650Z,4.38
2023-02-27T18:25:36.265Z,5.43
2023-02-27T18:28:03.564Z,3.30
2023-02-27T18:30:33.322Z,3.80
2023-02-27T18:33:00.138Z,6.25
2023-02-27T18:35:26.938Z,4.50
2023-02-27T18:37:53.344Z,7.03
2023-02-27T18:40:24.392Z,5.68
2023-02-27T18:42:52.344Z,5.67
2023-02-27T18:45:19.734Z,5.90
2023-02-27T18:47:46.190Z,6.38
2023-02-27T18:50:13.055Z,5.18
2023-02-27T18:52:39.487Z,5.78
2023-02-27T18:55:06.610Z,5.00
2023-02-27T18:57:33.103Z,5.57
2023-02-27T18:59:59.465Z,5.68
2023-02-27T19:02:25.878Z,6.35
2023-02-27T19:04:52.281Z,4.35
2023-02-27T19:07:19.601Z,6.63
2023-02-27T19:09:45.977Z,5.65
2023-02-27T19:12:12.326Z,6.60
2023-02-27T19:14:39.465Z,6.40
2023-02-27T19:17:06.502Z,5.30
2023-02-27T19:19:32.946Z,5.23
2023-02-27T19:21:59.373Z,4.95
2023-02-27T19:24:25.867Z,5.05
2023-02-27T19:26:53.492Z,5.60
2023-02-27T19:29:20.152Z,5.55
2023-02-27T19:31:46.753Z,6.27
2023-02-27T19:34:14.710Z,7.38
2023-02-27T19:36:41.430Z,6.25
2023-02-27T19:39:08.046Z,4.18
2023-02-27T19:41:34.466Z,4.57
2023-02-27T19:44:00.954Z,4.33
2023-02-27T19:46:30.961Z,4.97
2023-02-27T19:49:00.782Z,5.40
2023-02-27T19:51:27.258Z,5.13
2023-02-27T19:53:53.985Z,5.18
2023-02-27T19:56:23.096Z,7.47
2023-02-27T19:58:50.633Z,7.15
2023-02-27T20:01:23.233Z,6.20
2023-02-27T20:03:49.705Z,5.07
2023-02-27T20:06:18.963Z,6.43
2023-02-27T20:08:45.403Z,6.63
2023-02-27T20:11:13.395Z,7.82
2023-02-27T20:13:40.174Z,8.13
2023-02-27T20:16:09.194Z,7.53
2023-02-27T20:18:36.427Z,9.13
2023-02-27T20:21:12.882Z,7.70
2023-02-27T20:23:40.910Z,7.38
2023-02-27T20:26:21.443Z,8.10
2023-02-27T20:28:51.892Z,9.25
2023-02-27T20:31:21.113Z,6.55
2023-02-27T20:33:49.028Z,8.37
2023-02-27T20:36:16.028Z,7.00
2023-02-27T20:38:42.600Z,6.20
2023-02-27T20:41:14.814Z,5.63
2023-02-27T20:43:44.626Z,6.18
2023-02-27T20:46:13.502Z,5.67
2023-02-27T20:48:40.574Z,7.18
2023-02-27T20:51:21.772Z,6.40
2023-02-27T20:53:50.989Z,5.32
2023-02-27T20:56:22.451Z,7.68
2023-02-27T20:58:49.221Z,6.03
2023-02-27T21:01:16.679Z,6.47
2023-02-27T21:03:45.007Z,7.50
2023-02-27T21:06:14.098Z,9.02
2023-02-27T21:08:46.126Z,6.05
2023-02-27T21:11:33.193Z,6.50
2023-02-27T21:14:04.588Z,6.65
2023-02-27T21:16:31.817Z,8.35
2023-02-27T21:18:58.267Z,9.00
2023-02-27T21:21:30.489Z,12.07
2023-02-27T21:23:57.629Z,9.53
2023-02-27T21:26:38.981Z,7.63
2023-02-27T21:29:11.004Z,10.98
2023-02-27T21:31:38.913Z,7.80
2023-02-27T21:34:08.387Z,6.53
2023-02-27T21:36:42.126Z,11.23
2023-02-27T21:39:11.588Z,9.65
2023-02-27T21:41:38.818Z,9.55
2023-02-27T21:44:07.238Z,9.00
2023-02-27T21:46:34.647Z,11.68
2023-02-27T21:49:01.668Z,10.87
2023-02-27T21:51:39.565Z,8.52
2023-02-27T21:54:07.274Z,13.15
2023-02-27T21:56:33.799Z,9.80
2023-02-27T21:59:01.737Z,14.45
2023-02-27T22:01:29.267Z,12.57
2023-02-27T22:03:56.920Z,11.48
2023-02-27T22:06:25.948Z,13.27
2023-02-27T22:08:56.745Z,12.40
2023-02-27T22:11:24.777Z,11.93
2023-02-27T22:13:51.169Z,10.17
2023-02-27T22:16:18.287Z,10.68
2023-02-27T22:18:44.735Z,8.95
2023-02-27T22:21:16.014Z,9.88
2023-02-27T22:23:43.423Z,8.38
2023-02-27T22:26:13.400Z,9.50
2023-02-27T22:28:41.332Z,12.23
2023-02-27T22:31:26.917Z,8.68
2023-02-27T22:33:55.632Z,9.10
2023-02-27T22:36:25.377Z,7.85
2023-02-27T22:38:52.758Z,9.43
2023-02-27T22:41:22.456Z,11.65
2023-02-27T22:43:49.633Z,9.75
2023-02-27T22:46:23.306Z,10.25
2023-02-27T22:48:56.974Z,10.32
2023-02-27T22:51:25.296Z,10.50
2023-02-27T22:53:51.895Z,12.82
2023-02-27T22:56:18.555Z,9.52
2023-02-27T22:58:45.611Z,9.68
2023-02-27T23:01:24.137Z,9.85
2023-02-27T23:03:52.584Z,10.77
2023-02-27T23:06:21.732Z,9.63
2023-02-27T23:08:48.644Z,10.85
2023-02-27T23:11:16.200Z,10.48
2023-02-27T23:13:42.864Z,11.40
2023-02-27T23:16:13.609Z,10.00
2023-02-27T23:18:46.045Z,9.23
2023-02-27T23:21:13.768Z,10.00
2023-02-27T23:23:40.394Z,10.13
2023-02-27T23:26:06.874Z,10.32
2023-02-27T23:28:35.398Z,11.30
2023-02-27T23:31:02.421Z,11.32
2023-02-27T23:33:29.963Z,8.10
2023-02-27T23:35:57.538Z,8.50
2023-02-27T23:38:25.362Z,10.57
2023-02-27T23:40:52.106Z,10.43
2023-02-27T23:43:37.239Z,9.60
2023-02-27T23:46:08.496Z,10.55
2023-02-27T23:48:35.342Z,8.57
2023-02-27T23:51:05.552Z,8.27
2023-02-27T23:53:33.102Z,12.30
2023-02-27T23:55:59.566Z,9.05
2023-02-27T23:58:26.044Z,10.10
